Time;durP1;ratioP1;P1;durP2;ratioP2;P2;SDS_P1;SDS_P2;PMS_P1;PMS_P2;Temp;Humidity;BMP_temperature;BMP_pressure;BME280_temperature;BME280_humidity;BME280_pressure;Samples;Min_cycle;Max_cycle;Signal;HPM_P1;HPM_P2
2023/08/07 00:01:20;;;;;;;3.90;3.40;;;;;;;26.79;63.82;98676.16;84096;286;136085;-64
2023/08/07 00:03:22;;;;;;;4.20;3.80;;;;;;;26.75;64.13;98678.35;84190;286;23470;-64
2023/08/07 00:05:25;;;;;;;4.20;3.90;;;;;;;26.73;64.29;98681.11;84096;286;135726;-61
2023/08/07 00:07:27;;;;;;;4.10;3.30;;;;;;;26.71;64.21;98668.39;84168;286;22872;-63
2023/08/07 00:09:29;;;;;;;4.30;3.80;;;;;;;26.69;64.48;98671.22;84135;286;135753;-66
2023/08/07 00:11:31;;;;;;;5.30;3.70;;;;;;;26.67;64.69;98673.23;84010;288;25142;-67
2023/08/07 00:13:33;;;;;;;4.20;3.90;;;;;;;26.65;64.73;98664.58;84005;286;136039;-61
2023/08/07 00:15:37;;;;;;;4.20;3.80;;;;;;;26.62;64.89;98667.13;84152;286;24164;-58
2023/08/07 00:17:39;;;;;;;5.30;3.80;;;;;;;26.61;65.01;98659.05;83908;285;135887;-61
2023/08/07 00:19:41;;;;;;;7.60;4.40;;;;;;;26.62;65.08;98655.10;83898;285;26268;-59
2023/08/07 00:21:43;;;;;;;6.10;3.80;;;;;;;26.61;65.25;98657.55;84011;285;137484;-63
2023/08/07 00:23:47;;;;;;;4.90;4.50;;;;;;;26.57;65.40;98655.67;84212;285;24141;-65
2023/08/07 00:25:51;;;;;;;8.60;4.50;;;;;;;26.54;65.70;98650.11;83969;285;136100;-64
2023/08/07 00:27:53;;;;;;;4.30;3.80;;;;;;;26.49;66.00;98646.33;84076;285;23707;-63
2023/08/07 00:29:56;;;;;;;4.80;4.30;;;;;;;26.46;66.21;98642.15;84042;285;135403;-69
2023/08/07 00:31:58;;;;;;;4.70;4.40;;;;;;;26.46;66.26;98640.22;84238;285;22682;-62
2023/08/07 00:34:00;;;;;;;4.40;4.00;;;;;;;26.43;66.32;98632.15;84079;286;135596;-62
2023/08/07 00:36:03;;;;;;;6.70;4.50;;;;;;;26.43;66.65;98636.23;83950;286;136256;-61
2023/08/07 00:38:04;;;;;;;5.30;4.90;;;;;;;26.44;66.75;98629.61;84163;286;25739;-63
2023/08/07 00:40:07;;;;;;;4.50;4.20;;;;;;;26.42;67.02;98629.77;84072;286;136934;-63
2023/08/07 00:42:09;;;;;;;4.60;4.30;;;;;;;26.39;67.10;98627.26;84158;286;22582;-62
2023/08/07 00:44:10;;;;;;;6.40;4.90;;;;;;;26.39;67.37;98621.77;83869;286;136014;-63
2023/08/07 00:46:12;;;;;;;5.40;4.80;;;;;;;26.37;67.77;98623.20;84134;287;25125;-66
2023/08/07 00:48:17;;;;;;;4.90;4.50;;;;;;;26.34;67.82;98629.01;84008;286;135985;-62
2023/08/07 00:50:20;;;;;;;5.00;4.50;;;;;;;26.31;67.82;98626.25;84233;285;22571;-64
2023/08/07 00:52:25;;;;;;;5.90;5.40;;;;;;;26.22;68.47;98630.56;83994;285;135735;-65
2023/08/07 00:54:27;;;;;;;4.80;4.50;;;;;;;26.20;68.54;98621.02;84052;287;25541;-61
2023/08/07 00:56:30;;;;;;;4.80;4.30;;;;;;;26.18;68.59;98619.25;84042;285;135902;-59
2023/08/07 00:58:33;;;;;;;4.60;4.40;;;;;;;26.17;68.79;98614.37;84105;285;25203;-63
2023/08/07 01:00:35;;;;;;;6.00;4.80;;;;;;;26.15;68.84;98618.38;83992;287;136201;-64
2023/08/07 01:02:37;;;;;;;4.70;4.30;;;;;;;26.14;69.12;98612.54;84144;287;25200;-64
2023/08/07 01:04:39;;;;;;;10.20;4.50;;;;;;;26.15;69.00;98613.14;83958;285;135895;-65
2023/08/07 01:06:42;;;;;;;4.80;4.40;;;;;;;26.15;69.15;98603.50;84116;285;22714;-63
2023/08/07 01:08:45;;;;;;;5.30;4.80;;;;;;;26.14;69.14;98598.34;84029;285;137317;-63
2023/08/07 01:11:12;;;;;;;5.70;4.20;;;;;;;26.15;69.08;98596.19;84114;286;24135;-65
2023/08/07 01:13:25;;;;;;;5.10;4.70;;;;;;;26.16;69.04;98595.43;83914;286;136152;-64
2023/08/07 01:15:31;;;;;;;6.40;5.00;;;;;;;26.15;68.95;98591.59;84063;286;24354;-64
2023/08/07 01:17:34;;;;;;;6.80;4.40;;;;;;;26.13;69.35;98589.55;83974;285;137507;-60
2023/08/07 01:19:38;;;;;;;5.30;4.80;;;;;;;26.09;69.69;98587.69;84005;285;25145;-62
2023/08/07 01:21:39;;;;;;;10.50;5.00;;;;;;;26.05;69.80;98589.91;83958;285;135884;-60
2023/08/07 01:23:44;;;;;;;5.80;4.80;;;;;;;26.05;70.05;98586.54;84067;287;25199;-69
2023/08/07 01:25:46;;;;;;;5.30;4.90;;;;;;;26.04;69.94;98585.35;84060;285;136085;-61
2023/08/07 01:28:28;;;;;;;6.50;4.70;;;;;;;26.06;69.98;98580.02;84215;285;22567;-64
2023/08/07 01:30:46;;;;;;;6.40;5.10;;;;;;;26.06;70.07;98569.56;84058;287;22644;-61
2023/08/07 01:33:07;;;;;;;11.50;5.60;;;;;;;26.01;70.09;98563.54;83965;285;137523;-65
2023/08/07 01:35:12;;;;;;;5.60;5.10;;;;;;;25.99;70.38;98574.48;84048;286;22549;-59
2023/08/07 01:37:15;;;;;;;5.50;4.60;;;;;;;25.94;70.74;98572.79;83901;286;136372;-62
2023/08/07 01:39:19;;;;;;;5.20;4.70;;;;;;;25.92;70.78;98574.04;83931;286;24045;-62
2023/08/07 01:41:21;;;;;;;;;;;;;;;25.89;71.01;98561.84;84002;287;135594;-64
2023/08/07 01:43:23;;;;;;;8.40;5.00;;;;;;;25.84;71.41;98563.39;84035;286;22574;-62
2023/08/07 01:45:27;;;;;;;5.00;4.60;;;;;;;25.80;71.42;98556.80;83932;283;135965;-63
2023/08/07 01:47:29;;;;;;;6.80;6.20;;;;;;;25.81;71.49;98555.84;84220;285;25642;-71
2023/08/07 01:49:31;;;;;;;5.20;4.80;;;;;;;25.81;71.49;98548.55;83889;285;136359;-67
2023/08/07 01:51:33;;;;;;;5.50;5.00;;;;;;;25.82;71.46;98533.96;84126;285;22689;-63
2023/08/07 01:53:34;;;;;;;7.40;5.90;;;;;;;25.79;71.68;98524.96;84089;285;136259;-63
2023/08/07 01:55:36;;;;;;;5.00;4.50;;;;;;;25.78;71.77;98520.95;84001;285;22548;-62
2023/08/07 01:57:38;;;;;;;6.20;5.10;;;;;;;25.75;71.94;98523.73;83945;285;136446;-63
2023/08/07 01:59:40;;;;;;;5.30;4.60;;;;;;;25.77;71.66;98520.20;83983;286;22593;-63
2023/08/07 02:01:41;;;;;;;5.50;5.20;;;;;;;25.77;71.72;98524.66;83927;278;136832;-73
2023/08/07 02:03:43;;;;;;;6.00;5.20;;;;;;;25.78;71.75;98515.59;84021;287;25145;-65
2023/08/07 02:05:46;;;;;;;10.30;5.30;;;;;;;25.77;71.68;98511.89;83929;286;136231;-59
2023/08/07 02:07:48;;;;;;;5.80;4.80;;;;;;;25.75;72.04;98506.19;84106;285;24906;-63
2023/08/07 02:09:49;;;;;;;7.30;5.50;;;;;;;25.77;71.94;98514.39;83979;285;136158;-63
2023/08/07 02:11:51;;;;;;;5.70;5.20;;;;;;;25.78;71.94;98513.55;84152;285;22587;-64
2023/08/07 02:13:53;;;;;;;6.10;5.60;;;;;;;25.76;72.20;98520.59;83843;286;137351;-75
2023/08/07 02:15:55;;;;;;;5.50;5.10;;;;;;;25.74;72.23;98523.92;84007;286;22551;-62
2023/08/07 02:17:57;;;;;;;7.70;4.90;;;;;;;25.76;72.10;98520.11;84029;285;135990;-61
2023/08/07 02:19:58;;;;;;;6.70;5.00;;;;;;;25.73;72.15;98530.92;84052;285;22556;-65
2023/08/07 02:22:01;;;;;;;6.40;5.40;;;;;;;25.73;72.47;98536.92;84175;285;135990;-64
2023/08/07 02:24:03;;;;;;;6.80;5.40;;;;;;;25.75;72.39;98538.32;83928;285;136392;-65
2023/08/07 02:26:05;;;;;;;9.60;6.00;;;;;;;25.77;72.32;98533.10;84001;286;25226;-62
2023/08/07 02:28:07;;;;;;;10.60;6.40;;;;;;;25.80;72.06;98542.48;83901;285;136125;-63
2023/08/07 02:30:09;;;;;;;8.20;6.10;;;;;;;25.79;72.28;98545.96;83985;286;22681;-76
2023/08/07 02:32:11;;;;;;;6.60;5.60;;;;;;;25.81;72.32;98543.45;84082;285;136985;-63
2023/08/07 02:34:13;;;;;;;6.70;6.10;;;;;;;25.80;72.35;98533.69;84010;286;22580;-62
2023/08/07 02:36:15;;;;;;;13.20;6.60;;;;;;;25.80;72.51;98534.60;83900;285;137293;-59
2023/08/07 02:38:17;;;;;;;11.50;6.00;;;;;;;25.81;72.21;98528.03;84027;285;22677;-59
2023/08/07 02:40:19;;;;;;;9.50;6.50;;;;;;;25.83;72.34;98537.75;83928;285;136577;-66
2023/08/07 02:42:21;;;;;;;6.40;5.70;;;;;;;25.81;72.40;98533.81;84052;285;22546;-67
2023/08/07 02:44:23;;;;;;;8.40;5.70;;;;;;;25.79;72.58;98538.77;83967;285;136238;-66
2023/08/07 02:46:25;;;;;;;11.90;6.00;;;;;;;25.85;72.30;98535.55;84089;285;22552;-63
2023/08/07 02:48:27;;;;;;;5.60;5.10;;;;;;;25.87;72.31;98523.53;84010;286;141203;-64
2023/08/07 02:50:32;;;;;;;7.20;5.70;;;;;;;25.88;72.13;98524.23;84008;285;22583;-62
2023/08/07 02:52:34;;;;;;;7.10;4.80;;;;;;;25.93;71.95;98547.71;84018;285;136578;-63
2023/08/07 02:54:36;;;;;;;7.10;6.50;;;;;;;25.90;72.11;98532.64;83959;282;22544;-65
2023/08/07 02:56:37;;;;;;;7.30;5.70;;;;;;;25.88;72.21;98521.14;83841;285;136067;-69
2023/08/07 02:58:39;;;;;;;11.20;5.90;;;;;;;25.85;72.53;98524.40;84119;285;22552;-63
2023/08/07 03:00:41;;;;;;;12.20;7.10;;;;;;;25.82;72.76;98530.85;84077;285;137485;-62
2023/08/07 03:02:44;;;;;;;6.90;6.10;;;;;;;25.80;72.76;98522.52;84171;285;22547;-64
2023/08/07 03:04:46;;;;;;;8.10;6.20;;;;;;;25.79;72.98;98526.22;84120;285;137731;-62
2023/08/07 03:06:48;;;;;;;10.50;7.70;;;;;;;25.78;73.06;98521.73;84117;288;25255;-60
2023/08/07 03:08:50;;;;;;;13.80;7.10;;;;;;;25.76;73.14;98518.10;83967;285;136684;-63
2023/08/07 03:10:55;;;;;;;11.80;6.80;;;;;;;25.75;73.32;98519.30;83957;286;22658;-62
2023/08/07 03:12:58;;;;;;;16.40;7.10;;;;;;;25.73;73.68;98530.34;83867;286;135010;-68
2023/08/07 03:14:59;;;;;;;8.00;6.30;;;;;;;25.65;74.15;98522.03;84067;286;24231;-65
2023/08/07 03:17:02;;;;;;;12.40;6.60;;;;;;;25.61;74.54;98518.30;83981;285;139206;-64
2023/08/07 03:19:04;;;;;;;5.80;5.10;;;;;;;25.64;74.31;98523.85;83832;275;25197;-62
2023/08/07 03:21:07;;;;;;;5.90;5.40;;;;;;;25.64;74.32;98513.70;83939;285;138177;-66
2023/08/07 03:23:09;;;;;;;8.90;5.60;;;;;;;25.65;74.44;98510.41;84252;285;24107;-64
2023/08/07 03:25:11;;;;;;;4.60;4.30;;;;;;;25.64;74.31;98506.66;84080;286;137652;-64
2023/08/07 03:27:14;;;;;;;6.60;6.00;;;;;;;25.63;74.66;98501.56;84168;284;22651;-64
2023/08/07 03:29:16;;;;;;;6.10;5.10;;;;;;;25.60;74.75;98504.73;84026;285;139762;-63
2023/08/07 03:31:18;;;;;;;8.30;5.80;;;;;;;25.56;75.24;98503.30;84276;283;23729;-64
2023/08/07 03:33:21;;;;;;;5.50;5.10;;;;;;;25.56;75.26;98503.88;83909;285;137788;-66
2023/08/07 03:35:22;;;;;;;9.10;5.70;;;;;;;25.57;75.27;98500.15;84251;285;22574;-65
2023/08/07 03:37:24;;;;;;;6.40;5.80;;;;;;;25.57;75.20;98498.04;84157;284;136681;-71
2023/08/07 03:39:26;;;;;;;7.00;5.80;;;;;;;25.52;75.93;98516.19;84267;284;25273;-68
2023/08/07 03:41:28;;;;;;;26.10;8.80;;;;;;;25.46;76.45;98512.92;84136;284;136626;-65
2023/08/07 03:43:31;;;;;;;23.60;8.50;;;;;;;25.39;76.92;98512.87;84219;274;22575;-64
2023/08/07 03:45:34;;;;;;;20.80;8.10;;;;;;;25.37;77.23;98508.29;83987;286;136879;-68
2023/08/07 03:47:35;;;;;;;14.00;7.30;;;;;;;25.37;77.21;98502.08;84148;284;22552;-68
2023/08/07 03:49:37;;;;;;;18.80;8.80;;;;;;;25.37;77.25;98508.08;84066;285;137424;-67
2023/08/07 03:51:39;;;;;;;13.80;7.40;;;;;;;25.43;77.02;98506.95;84165;286;22555;-68
2023/08/07 03:53:42;;;;;;;15.50;7.30;;;;;;;25.46;76.99;98504.91;84021;286;138091;-64
2023/08/07 03:55:50;;;;;;;18.20;7.70;;;;;;;25.47;77.13;98506.02;83987;284;25224;-68
2023/08/07 03:57:52;;;;;;;10.00;6.50;;;;;;;25.46;77.41;98508.23;84071;286;136508;-61
2023/08/07 03:59:54;;;;;;;13.60;7.70;;;;;;;25.45;77.58;98517.42;84155;285;22556;-64
2023/08/07 04:01:56;;;;;;;12.90;7.90;;;;;;;25.45;77.77;98497.75;84408;284;136857;-67
2023/08/07 04:03:58;;;;;;;10.70;7.50;;;;;;;25.47;77.99;98499.40;84074;284;25221;-61
2023/08/07 04:06:05;;;;;;;13.50;7.60;;;;;;;25.51;77.91;98489.78;83988;284;137298;-64
2023/08/07 04:08:07;;;;;;;8.70;6.90;;;;;;;25.57;77.64;98496.27;84806;284;137372;-61
2023/08/07 04:10:09;;;;;;;10.30;5.40;;;;;;;25.64;77.41;98488.48;84036;285;22565;-67
2023/08/07 04:12:11;;;;;;;7.50;5.90;;;;;;;25.74;77.24;98476.32;84076;285;138597;-66
2023/08/07 04:14:12;;;;;;;10.70;6.70;;;;;;;25.96;76.47;98478.73;84013;284;23836;-65
2023/08/07 04:16:16;;;;;;;8.70;5.80;;;;;;;26.29;75.11;98472.17;84303;284;136320;-62
2023/08/07 04:18:19;;;;;;;7.00;6.30;;;;;;;26.58;73.66;98471.42;84036;284;22813;-63
2023/08/07 04:20:21;;;;;;;7.80;6.20;;;;;;;26.78;72.25;98478.78;83903;283;136631;-65
2023/08/07 04:22:22;;;;;;;19.50;7.80;;;;;;;26.80;72.03;98475.80;84012;284;24106;-70
2023/08/07 04:24:26;;;;;;;5.70;5.10;;;;;;;26.78;72.00;98475.60;84125;283;136313;-66
2023/08/07 04:26:27;;;;;;;9.60;7.30;;;;;;;26.91;71.94;98472.48;84166;284;22655;-64
2023/08/07 04:28:29;;;;;;;7.10;5.80;;;;;;;27.20;71.09;98467.91;84063;284;136503;-67
2023/08/07 04:30:31;;;;;;;6.60;6.00;;;;;;;27.68;69.61;98470.28;84014;285;22544;-61
2023/08/07 04:32:33;;;;;;;12.40;7.10;;;;;;;28.17;66.51;98469.81;84045;284;136339;-65
2023/08/07 04:34:35;;;;;;;10.60;6.20;;;;;;;28.31;65.51;98464.65;84188;284;25318;-65
2023/08/07 04:36:37;;;;;;;10.20;6.00;;;;;;;28.36;65.52;98468.43;84069;284;136300;-67
2023/08/07 04:38:38;;;;;;;13.30;7.70;;;;;;;28.38;65.58;98462.16;84210;284;23737;-68
2023/08/07 04:40:47;;;;;;;7.20;6.60;;;;;;;28.51;64.68;98472.42;84029;284;135391;-66
2023/08/07 04:42:50;;;;;;;9.70;5.60;;;;;;;28.70;63.60;98468.20;84215;284;24198;-67
2023/08/07 04:44:52;;;;;;;8.70;6.00;;;;;;;28.96;62.88;98459.26;84097;286;136007;-67
2023/08/07 04:46:53;;;;;;;10.90;6.30;;;;;;;28.99;62.09;98456.04;84165;284;25149;-63
2023/08/07 04:48:56;;;;;;;10.40;6.50;;;;;;;28.89;62.78;98451.11;84088;284;136592;-67
2023/08/07 04:50:58;;;;;;;7.20;6.50;;;;;;;28.71;63.23;98444.51;84104;284;24273;-67
2023/08/07 04:53:00;;;;;;;10.10;6.20;;;;;;;28.78;63.18;98463.23;84012;284;137585;-63
2023/08/07 04:55:02;;;;;;;5.70;5.20;;;;;;;28.75;63.16;98467.92;84268;284;25595;-64
2023/08/07 04:57:03;;;;;;;11.50;7.20;;;;;;;28.64;63.34;98456.95;84018;284;136153;-66
2023/08/07 04:59:05;;;;;;;7.30;6.30;;;;;;;28.47;64.23;98461.75;84199;284;22549;-66
2023/08/07 05:01:07;;;;;;;8.10;5.90;;;;;;;28.25;64.91;98460.09;84039;284;137750;-64
2023/08/07 05:03:11;;;;;;;15.20;7.60;;;;;;;28.06;66.09;98447.80;84279;284;22512;-66
2023/08/07 05:05:14;;;;;;;12.40;7.00;;;;;;;28.02;66.60;98454.41;84169;285;136403;-64
2023/08/07 05:07:16;;;;;;;8.20;6.40;;;;;;;28.08;66.69;98437.98;84254;284;23722;-69
2023/08/07 05:09:18;;;;;;;11.80;7.40;;;;;;;28.15;66.67;98435.19;83929;284;137661;-65
2023/08/07 05:11:21;;;;;;;11.00;6.30;;;;;;;28.37;65.85;98438.41;84140;284;22601;-66
2023/08/07 05:13:23;;;;;;;8.30;6.40;;;;;;;28.60;64.85;98426.77;84050;284;136344;-65
2023/08/07 05:15:28;;;;;;;6.50;6.00;;;;;;;28.83;64.53;98416.82;84211;284;22610;-65
2023/08/07 05:17:31;;;;;;;7.30;6.10;;;;;;;29.01;63.92;98416.90;83848;285;137562;-71
2023/08/07 05:19:33;;;;;;;10.90;6.60;;;;;;;28.88;63.14;98424.21;84127;285;25266;-65
2023/08/07 05:21:34;;;;;;;9.50;6.70;;;;;;;28.65;64.05;98417.11;84008;285;137795;-68
2023/08/07 05:23:36;;;;;;;6.30;5.30;;;;;;;28.38;65.10;98424.58;84050;286;25275;-66
2023/08/07 05:25:40;;;;;;;6.70;5.80;;;;;;;28.04;66.61;98420.89;84137;284;136147;-66
2023/08/07 05:27:43;;;;;;;7.50;6.90;;;;;;;27.74;68.28;98421.02;84152;284;22591;-66
2023/08/07 05:29:44;;;;;;;9.90;6.00;;;;;;;27.50;69.62;98411.67;83983;284;136303;-69
2023/08/07 05:31:46;;;;;;;7.20;6.40;;;;;;;27.33;70.81;98415.66;84125;284;22567;-67
2023/08/07 05:33:51;;;;;;;6.80;6.20;;;;;;;27.32;71.62;98422.80;84053;284;136243;-65
2023/08/07 05:35:52;;;;;;;7.70;6.10;;;;;;;27.42;71.59;98434.89;84027;281;22548;-61
2023/08/07 05:37:54;;;;;;;7.00;6.20;;;;;;;27.55;71.17;98437.01;84112;283;136329;-62
2023/08/07 05:39:56;;;;;;;6.80;6.20;;;;;;;27.72;70.88;98419.23;84173;283;22582;-65
2023/08/07 05:41:58;;;;;;;15.00;6.00;;;;;;;27.90;70.20;98422.88;83978;284;136667;-68
2023/08/07 05:44:00;;;;;;;7.90;5.70;;;;;;;28.09;69.88;98426.34;85411;285;24211;-66
2023/08/07 05:46:02;;;;;;;5.40;5.00;;;;;;;28.24;69.77;98429.78;83945;284;23701;-66
2023/08/07 05:48:06;;;;;;;8.60;5.80;;;;;;;28.26;69.60;98419.27;83930;284;136542;-65
2023/08/07 05:50:08;;;;;;;7.30;6.40;;;;;;;28.25;69.80;98422.63;84209;284;23692;-66
2023/08/07 05:52:10;;;;;;;6.60;6.10;;;;;;;28.07;70.88;98426.29;83954;285;136285;-66
2023/08/07 05:54:12;;;;;;;6.10;5.60;;;;;;;27.89;72.25;98422.85;84076;284;24056;-65
2023/08/07 05:56:14;;;;;;;8.40;5.50;;;;;;;27.78;72.82;98419.40;84103;284;136344;-67
2023/08/07 05:58:16;;;;;;;6.00;4.60;;;;;;;27.68;73.86;98427.67;84179;285;22566;-64
2023/08/07 06:00:19;;;;;;;5.50;5.00;;;;;;;27.51;75.03;98427.89;84095;284;137632;-63
2023/08/07 06:02:21;;;;;;;7.00;5.30;;;;;;;27.31;76.26;98421.48;84176;284;25479;-66
2023/08/07 06:04:22;;;;;;;5.50;5.10;;;;;;;27.16;77.49;98417.62;83914;284;136407;-60
2023/08/07 06:06:27;;;;;;;5.40;4.20;;;;;;;27.03;78.09;98415.15;84127;284;25252;-71
2023/08/07 06:08:30;;;;;;;5.90;5.30;;;;;;;26.94;78.60;98405.64;84169;284;136787;-62
2023/08/07 06:10:32;;;;;;;5.50;5.10;;;;;;;26.82;79.17;98414.58;84090;285;25135;-65
2023/08/07 06:12:34;;;;;;;8.00;5.00;;;;;;;26.71;80.13;98428.05;84020;284;137133;-65
2023/08/07 06:14:37;;;;;;;5.20;4.80;;;;;;;26.62;80.65;98427.55;84148;284;25136;-65
2023/08/07 06:16:39;;;;;;;7.00;5.80;;;;;;;26.60;80.93;98434.20;84287;282;137001;-65
2023/08/07 06:18:41;;;;;;;6.10;4.80;;;;;;;26.62;81.16;98431.12;84376;282;22655;-67
2023/08/07 06:20:42;;;;;;;7.60;5.50;;;;;;;26.68;81.18;98437.64;84219;283;137013;-65
2023/08/07 06:22:44;;;;;;;6.60;5.80;;;;;;;26.79;80.87;98429.77;84232;282;22547;-67
2023/08/07 06:24:46;;;;;;;6.40;5.10;;;;;;;26.92;80.13;98422.14;84163;282;136963;-69
2023/08/07 06:26:49;;;;;;;5.40;4.90;;;;;;;27.00;79.33;98423.95;84216;283;25349;-70
2023/08/07 06:28:51;;;;;;;6.40;5.80;;;;;;;27.02;78.55;98426.98;84227;282;137152;-64
2023/08/07 06:30:53;;;;;;;7.70;6.00;;;;;;;26.95;78.57;98427.16;84155;282;22720;-66
2023/08/07 06:32:55;;;;;;;7.20;6.00;;;;;;;27.00;78.38;98431.23;84141;281;136793;-65
2023/08/07 06:34:57;;;;;;;5.80;5.30;;;;;;;27.17;78.43;98416.56;84292;281;22641;-72
2023/08/07 06:36:59;;;;;;;12.20;6.10;;;;;;;27.37;77.36;98420.48;84188;281;136949;-68
2023/08/07 06:39:02;;;;;;;7.00;6.10;;;;;;;27.48;75.97;98404.28;84259;282;24112;-64
2023/08/07 06:41:04;;;;;;;6.10;5.70;;;;;;;27.56;75.53;98406.38;84242;282;136047;-64
2023/08/07 06:43:06;;;;;;;6.00;5.50;;;;;;;27.50;75.73;98399.73;84274;282;22631;-69
2023/08/07 06:45:08;;;;;;;6.00;5.50;;;;;;;27.54;76.15;98414.36;83897;281;349863;-70
2023/08/07 06:47:10;;;;;;;5.90;5.40;;;;;;;27.62;75.83;98416.99;84372;281;25129;-65
2023/08/07 06:49:13;;;;;;;6.80;5.40;;;;;;;27.66;75.40;98412.90;84268;282;137831;-66
2023/08/07 06:51:15;;;;;;;7.90;5.70;;;;;;;27.80;75.49;98405.86;84207;283;22547;-66
2023/08/07 06:53:18;;;;;;;12.80;5.60;;;;;;;27.90;75.23;98404.24;84124;282;136321;-68
2023/08/07 06:55:20;;;;;;;6.30;4.90;;;;;;;28.00;74.86;98394.18;84274;282;25369;-64
2023/08/07 06:57:21;;;;;;;6.00;4.90;;;;;;;27.91;75.15;98393.64;84255;281;135978;-65
2023/08/07 06:59:24;;;;;;;5.10;4.70;;;;;;;27.69;75.99;98397.58;84352;282;22554;-64
2023/08/07 07:01:27;;;;;;;7.40;4.40;;;;;;;27.36;77.74;98403.16;84117;281;136331;-65
2023/08/07 07:03:29;;;;;;;10.50;4.80;;;;;;;27.20;79.23;98395.26;84353;283;22652;-65
2023/08/07 07:05:32;;;;;;;7.10;4.40;;;;;;;27.16;79.81;98384.90;84185;282;138419;-65
2023/08/07 07:07:35;;;;;;;6.20;4.60;;;;;;;27.21;80.30;98393.00;84621;281;22573;-67
2023/08/07 07:09:37;;;;;;;4.50;4.10;;;;;;;27.25;80.91;98402.83;84263;281;136981;-66
2023/08/07 07:11:38;;;;;;;6.10;3.80;;;;;;;27.33;82.96;98405.41;84342;282;22651;-68
2023/08/07 07:13:41;;;;;;;8.10;5.40;;;;;;;27.35;82.64;98404.05;84227;282;136891;-63
2023/08/07 07:15:43;;;;;;;4.80;4.40;;;;;;;27.26;83.72;98415.11;84349;282;22571;-65
2023/08/07 07:17:45;;;;;;;4.20;3.90;;;;;;;27.09;84.52;98419.30;84128;283;136844;-66
2023/08/07 07:19:46;;;;;;;7.20;4.40;;;;;;;26.94;85.21;98411.84;84302;282;22547;-66
2023/08/07 07:21:49;;;;;;;5.40;4.10;;;;;;;26.83;86.95;98414.28;84255;281;136811;-68
2023/08/07 07:23:52;;;;;;;8.80;4.70;;;;;;;26.60;88.71;98391.94;84337;282;24117;-63
2023/08/07 07:25:54;;;;;;;4.30;4.00;;;;;;;26.61;88.39;98399.77;84136;283;137872;-66
2023/08/07 07:27:56;;;;;;;5.00;4.30;;;;;;;26.56;89.01;98403.80;84139;283;25201;-67
2023/08/07 07:29:57;;;;;;;5.60;5.20;;;;;;;26.49;90.17;98424.19;84252;282;137435;-68
2023/08/07 07:31:59;;;;;;;6.30;4.70;;;;;;;26.40;90.95;98428.60;84378;282;25268;-66
2023/08/07 07:34:01;;;;;;;5.70;5.20;;;;;;;26.28;91.11;98432.11;84209;281;136638;-65
2023/08/07 07:36:03;;;;;;;5.70;5.20;;;;;;;26.12;91.53;98459.63;84177;282;138743;-66
2023/08/07 07:38:06;;;;;;;7.90;5.40;;;;;;;25.96;92.43;98455.34;84224;282;22558;-67
2023/08/07 07:40:11;;;;;;;6.20;5.60;;;;;;;25.80;93.53;98460.41;84186;282;137164;-64
2023/08/07 07:42:13;;;;;;;14.90;6.00;;;;;;;25.72;94.23;98456.35;84277;282;22675;-66
2023/08/07 07:44:14;;;;;;;7.90;5.70;;;;;;;25.67;94.90;98437.60;84080;282;137304;-66
2023/08/07 07:46:16;;;;;;;8.50;6.10;;;;;;;25.65;95.42;98427.19;84318;281;22543;-68
2023/08/07 07:48:20;;;;;;;5.70;5.10;;;;;;;25.72;95.90;98424.30;84171;282;137245;-64
2023/08/07 07:50:21;;;;;;;6.30;5.80;;;;;;;25.91;95.35;98420.62;84194;282;25256;-68
2023/08/07 07:52:24;;;;;;;5.90;5.40;;;;;;;26.17;94.64;98414.87;84095;282;136671;-66
2023/08/07 07:54:25;;;;;;;6.40;5.40;;;;;;;26.36;93.15;98409.05;84300;282;25151;-64
2023/08/07 07:56:27;;;;;;;5.60;5.20;;;;;;;26.68;90.74;98414.90;84263;281;136780;-66
2023/08/07 07:58:29;;;;;;;9.80;5.00;;;;;;;26.93;89.42;98426.55;84275;281;25157;-62
2023/08/07 08:00:32;;;;;;;6.20;5.20;;;;;;;27.05;87.59;98429.65;84210;282;137844;-64
2023/08/07 08:02:33;;;;;;;6.80;4.80;;;;;;;27.05;87.30;98433.23;84271;282;26227;-64
2023/08/07 08:04:35;;;;;;;4.60;4.20;;;;;;;27.03;85.99;98433.48;84090;282;136810;-66
2023/08/07 08:06:37;;;;;;;5.10;4.70;;;;;;;27.08;85.55;98435.36;84236;282;22655;-67
2023/08/07 08:08:42;;;;;;;5.80;4.30;;;;;;;27.07;85.48;98431.27;84239;276;137119;-65
2023/08/07 08:10:47;;;;;;;4.40;4.00;;;;;;;27.06;85.14;98423.98;84272;274;24080;-66
2023/08/07 08:12:49;;;;;;;5.20;4.70;;;;;;;27.11;85.24;98426.47;84100;282;136843;-66
2023/08/07 08:14:51;;;;;;;4.50;4.20;;;;;;;27.17;84.25;98426.02;84215;282;24101;-66
2023/08/07 08:16:57;;;;;;;4.30;4.00;;;;;;;27.30;84.05;98417.91;84159;282;136789;-65
2023/08/07 08:18:59;;;;;;;6.00;4.60;;;;;;;27.43;83.21;98414.61;84466;270;22672;-65
2023/08/07 08:21:01;;;;;;;4.90;4.10;;;;;;;27.53;82.68;98409.73;84067;282;136804;-66
2023/08/07 08:23:04;;;;;;;4.50;4.10;;;;;;;27.59;82.66;98408.80;84244;282;22548;-68
2023/08/07 08:25:06;;;;;;;7.20;4.90;;;;;;;27.60;82.16;98407.27;84352;281;138086;-66
2023/08/07 08:27:08;;;;;;;7.30;5.50;;;;;;;27.63;81.67;98412.19;84277;281;22886;-68
2023/08/07 08:29:14;;;;;;;5.10;4.20;;;;;;;27.65;81.77;98414.98;84159;281;137033;-66
2023/08/07 08:31:16;;;;;;;6.80;4.10;;;;;;;27.66;82.26;98423.06;84253;281;24006;-66
2023/08/07 08:33:18;;;;;;;4.40;4.00;;;;;;;27.67;81.86;98420.59;84075;283;136684;-65
2023/08/07 08:35:20;;;;;;;8.40;4.70;;;;;;;27.66;81.60;98427.42;84267;282;24441;-64
2023/08/07 08:37:22;;;;;;;4.90;4.40;;;;;;;27.65;81.44;98423.97;84083;279;136880;-67
2023/08/07 08:39:24;;;;;;;7.40;3.90;;;;;;;27.65;80.79;98426.79;84252;282;23810;-66
2023/08/07 08:41:26;;;;;;;4.10;3.70;;;;;;;27.71;80.27;98428.42;84065;280;136591;-68
2023/08/07 08:43:32;;;;;;;3.80;3.50;;;;;;;27.80;80.42;98431.42;84192;282;22539;-72
2023/08/07 08:45:37;;;;;;;3.50;3.30;;;;;;;27.90;79.17;98438.58;84202;282;137856;-63
2023/08/07 08:47:41;;;;;;;4.30;4.10;;;;;;;27.99;78.73;98428.67;84237;281;22547;-66
2023/08/07 08:49:48;;;;;;;4.20;3.90;;;;;;;28.10;78.46;98434.59;84238;282;137481;-63
2023/08/07 08:51:50;;;;;;;4.30;4.00;;;;;;;28.20;78.19;98444.06;84272;283;22585;-62
2023/08/07 08:53:53;;;;;;;8.10;3.60;;;;;;;28.24;77.78;98443.33;84238;281;137691;-66
2023/08/07 08:55:55;;;;;;;6.60;3.70;;;;;;;28.31;76.88;98434.03;84430;281;25157;-70
2023/08/07 08:58:00;;;;;;;4.90;4.20;;;;;;;28.36;76.30;98433.75;84099;282;136104;-71
2023/08/07 09:00:17;;;;;;;4.20;3.80;;;;;;;28.42;75.36;98430.38;84239;282;24140;-67
2023/08/07 09:02:19;;;;;;;4.30;3.90;;;;;;;28.32;74.37;98429.66;84146;282;22545;-68
2023/08/07 09:04:22;;;;;;;6.60;4.00;;;;;;;28.17;74.71;98426.48;84052;277;136432;-65
2023/08/07 09:06:25;;;;;;;3.70;3.50;;;;;;;28.02;74.75;98425.46;84222;282;22636;-65
2023/08/07 09:08:31;;;;;;;4.40;4.00;;;;;;;27.85;74.97;98425.31;84261;281;160632;-66
2023/08/07 09:10:34;;;;;;;4.10;3.90;;;;;;;27.66;75.82;98421.80;84255;283;22583;-65
2023/08/07 09:13:00;;;;;;;4.30;3.40;;;;;;;27.49;75.97;98418.92;84065;281;135832;-67
2023/08/07 09:15:04;;;;;;;4.10;3.80;;;;;;;27.28;76.68;98421.29;84247;281;22575;-63
2023/08/07 09:17:06;;;;;;;6.20;4.30;;;;;;;27.22;77.39;98425.31;84145;281;137394;-64
2023/08/07 09:19:08;;;;;;;4.50;4.10;;;;;;;27.17;78.08;98424.69;84125;282;22561;-66
2023/08/07 09:21:10;;;;;;;4.00;3.70;;;;;;;27.14;78.13;98424.83;84039;283;136882;-66
2023/08/07 09:23:12;;;;;;;6.70;3.90;;;;;;;27.07;78.84;98441.98;84296;282;22551;-65
2023/08/07 09:25:14;;;;;;;7.60;3.10;;;;;;;27.04;78.25;98447.88;84139;282;138060;-67
2023/08/07 09:27:17;;;;;;;5.80;2.80;;;;;;;26.87;78.38;98478.67;84213;281;22556;-66
2023/08/07 09:29:21;;;;;;;7.00;2.60;;;;;;;26.57;80.41;98493.09;84296;281;136242;-65
2023/08/07 09:31:26;;;;;;;2.80;1.70;;;;;;;26.08;85.49;98504.52;84422;281;22567;-61
2023/08/07 09:33:30;;;;;;;3.20;2.00;;;;;;;25.44;90.41;98512.29;84349;282;136919;-65
2023/08/07 09:35:33;;;;;;;6.70;3.10;;;;;;;24.91;93.82;98516.64;84388;281;25160;-64
2023/08/07 09:37:36;;;;;;;4.80;3.70;;;;;;;24.51;99.08;98509.34;84176;281;137003;-66
2023/08/07 09:39:40;;;;;;;6.10;4.20;;;;;;;24.28;100.00;98494.27;84266;283;25120;-63
2023/08/07 09:41:41;;;;;;;8.90;4.80;;;;;;;24.11;100.00;98502.64;84154;283;137125;-66